Time;durP1;ratioP1;P1;durP2;ratioP2;P2;SDS_P1;SDS_P2;PMS_P1;PMS_P2;Temp;Humidity;BMP_temperature;BMP_pressure;BME280_temperature;BME280_humidity;BME280_pressure;Samples;Min_cycle;Max_cycle;Signal;HPM_P1;HPM_P2
2022/09/02 00:01:50;;;;;;;12.10;11.10;;;;;;;24.87;52.87;94758.25;6169830;28;103217;-70
2022/09/02 00:04:54;;;;;;;11.60;10.63;;;;;;;24.93;52.83;94761.47;6172748;28;103024;-71
2022/09/02 00:07:57;;;;;;;12.57;11.53;;;;;;;24.95;52.50;94765.38;6172813;28;103774;-72
2022/09/02 00:11:02;;;;;;;13.27;11.57;;;;;;;24.97;52.78;94752.44;6171542;28;103188;-72
2022/09/02 00:14:10;;;;;;;12.40;11.40;;;;;;;24.98;52.61;94756.69;6182268;28;104755;-70
2022/09/02 00:17:14;;;;;;;12.90;11.80;;;;;;;24.97;52.62;94752.44;6175449;28;103564;-71
2022/09/02 00:20:17;;;;;;;12.37;11.20;;;;;;;24.99;52.66;94747.53;6152330;28;104026;-69
2022/09/02 00:23:21;;;;;;;12.73;11.53;;;;;;;25.00;52.73;94757.13;6177895;28;105866;-70
2022/09/02 00:26:26;;;;;;;13.00;11.70;;;;;;;25.00;52.71;94757.13;6184272;28;103365;-71
2022/09/02 00:29:30;;;;;;;13.40;12.40;;;;;;;24.99;52.91;94766.28;6185511;28;103094;-71
2022/09/02 00:32:34;;;;;;;13.03;11.40;;;;;;;25.00;52.71;94762.50;6175923;28;103067;-71
2022/09/02 00:35:37;;;;;;;13.17;12.20;;;;;;;24.99;52.95;94768.97;6181870;28;103096;-71
2022/09/02 00:38:40;;;;;;;13.43;12.33;;;;;;;24.98;52.98;94770.06;6180178;28;104164;-69
2022/09/02 00:41:44;;;;;;;13.20;12.13;;;;;;;24.99;53.04;94776.22;6180298;28;103054;-69
2022/09/02 00:44:50;;;;;;;12.67;11.73;;;;;;;25.00;52.63;94783.91;6176052;28;103460;-72
2022/09/02 00:47:53;;;;;;;12.33;11.33;;;;;;;25.01;52.44;94782.00;6179688;28;104234;-71
2022/09/02 00:50:56;;;;;;;12.97;11.97;;;;;;;25.00;52.90;94783.91;6171085;28;103285;-69
2022/09/02 00:53:59;;;;;;;12.90;11.97;;;;;;;25.01;52.78;94779.34;6171279;28;103944;-70
2022/09/02 00:57:07;;;;;;;12.37;11.37;;;;;;;25.01;52.80;94777.44;6167007;28;103482;-71
2022/09/02 01:00:16;;;;;;;12.27;11.27;;;;;;;25.01;52.75;94773.97;6174028;28;103229;-69
2022/09/02 01:03:21;;;;;;;12.60;11.60;;;;;;;25.01;52.76;94777.44;6161079;28;103125;-71
2022/09/02 01:06:31;;;;;;;12.83;11.80;;;;;;;25.01;52.62;94774.75;6171677;28;103066;-70
2022/09/02 01:09:35;;;;;;;13.57;12.50;;;;;;;25.02;52.51;94770.97;6163768;28;103153;-72
2022/09/02 01:12:38;;;;;;;13.33;12.20;;;;;;;25.01;52.58;94772.09;6169635;28;103239;-71
2022/09/02 01:15:45;;;;;;;12.83;11.90;;;;;;;25.00;52.78;94770.53;6172166;28;103315;-70
2022/09/02 01:18:53;;;;;;;12.53;11.57;;;;;;;25.00;53.13;94770.53;6148652;28;103571;-71
2022/09/02 01:21:58;;;;;;;13.03;12.03;;;;;;;25.00;52.53;94767.06;6185797;28;105658;-71
2022/09/02 01:25:05;;;;;;;12.93;12.03;;;;;;;25.00;52.97;94767.84;6171559;28;103222;-70
2022/09/02 01:28:11;;;;;;;12.57;11.40;;;;;;;25.01;52.64;94768.63;6175675;28;103970;-70
2022/09/02 01:31:14;;;;;;;12.87;11.63;;;;;;;25.02;52.49;94768.28;6178112;28;103160;-70
2022/09/02 01:34:18;;;;;;;13.47;12.17;;;;;;;25.03;52.40;94767.22;6180721;28;102777;-71
2022/09/02 01:37:23;;;;;;;12.73;11.80;;;;;;;25.04;52.50;94770.66;6176188;28;105252;-66
2022/09/02 01:40:28;;;;;;;12.60;11.60;;;;;;;25.04;52.63;94771.44;6158952;28;105421;-64
2022/09/02 01:43:31;;;;;;;12.90;11.80;;;;;;;25.06;52.42;94779.16;6164505;28;103009;-69
2022/09/02 01:46:35;;;;;;;13.60;12.40;;;;;;;25.07;52.40;94764.66;6170265;28;104101;-68
2022/09/02 01:49:38;;;;;;;12.53;11.53;;;;;;;25.04;52.39;94752.69;6178051;28;102838;-68
2022/09/02 01:52:42;;;;;;;12.83;11.80;;;;;;;25.05;52.34;94753.47;6173766;28;103996;-68
2022/09/02 01:55:46;;;;;;;13.33;12.33;;;;;;;25.04;52.72;94744.66;6166047;28;103098;-68
2022/09/02 01:58:49;;;;;;;12.80;11.90;;;;;;;25.05;52.54;94738.19;6160702;28;103019;-69
2022/09/02 02:01:54;;;;;;;12.87;11.87;;;;;;;25.07;52.32;94732.50;6164528;28;103690;-69
2022/09/02 02:04:58;;;;;;;12.83;11.63;;;;;;;25.05;52.30;94726.72;6153796;28;105139;-68
2022/09/02 02:08:06;;;;;;;12.47;11.47;;;;;;;25.04;52.37;94725.94;6164059;28;103756;-68
2022/09/02 02:11:09;;;;;;;13.43;12.20;;;;;;;25.01;52.35;94729.25;6174177;28;102877;-68
2022/09/02 02:14:12;;;;;;;13.13;12.13;;;;;;;25.02;52.27;94738.06;6172582;28;104379;-68
2022/09/02 02:17:16;;;;;;;13.10;12.20;;;;;;;24.97;52.68;94744.41;6173756;28;103002;-68
2022/09/02 02:20:20;;;;;;;13.03;12.03;;;;;;;24.96;52.72;94745.53;6172595;28;103283;-68
2022/09/02 02:23:25;;;;;;;13.20;12.30;;;;;;;24.97;52.74;94744.41;6160594;28;103037;-68
2022/09/02 02:26:28;;;;;;;13.10;12.00;;;;;;;24.95;52.73;94741.28;6151799;28;104324;-68
2022/09/02 02:29:31;;;;;;;13.37;12.10;;;;;;;24.97;52.47;94746.31;6161284;28;103204;-68
2022/09/02 02:32:34;;;;;;;14.30;13.00;;;;;;;24.97;52.70;94747.09;6173853;28;103666;-68
2022/09/02 02:35:38;;;;;;;14.13;12.87;;;;;;;24.98;52.67;94747.88;6168818;28;104861;-68
2022/09/02 02:38:45;;;;;;;14.17;12.87;;;;;;;24.97;52.50;94744.41;6154877;28;103490;-68
2022/09/02 02:41:48;;;;;;;14.20;12.80;;;;;;;24.98;52.70;94751.34;6185246;28;103030;-69
2022/09/02 02:44:51;;;;;;;17.07;15.60;;;;;;;24.98;52.63;94735.28;6178741;28;103001;-68
2022/09/02 02:47:54;;;;;;;16.80;15.50;;;;;;;25.00;52.51;94753.69;6158427;28;104173;-68
2022/09/02 02:50:57;;;;;;;16.10;14.70;;;;;;;24.99;52.84;94755.56;6176712;28;103786;-68
2022/09/02 02:54:03;;;;;;;14.03;12.90;;;;;;;25.01;52.66;94752.56;6167931;28;103983;-69
2022/09/02 02:57:08;;;;;;;14.10;13.00;;;;;;;25.02;52.14;94748.78;6165907;28;103076;-68
2022/09/02 03:00:13;;;;;;;14.70;13.50;;;;;;;25.01;52.34;94747.22;6166554;28;103141;-69
2022/09/02 03:03:18;;;;;;;13.20;12.07;;;;;;;25.01;51.94;94748.00;6186112;28;104364;-68
2022/09/02 03:06:21;;;;;;;11.50;10.57;;;;;;;25.03;52.34;94744.97;6167002;28;104813;-68
2022/09/02 03:09:30;;;;;;;10.80;9.90;;;;;;;25.01;52.13;94753.34;6185215;28;103302;-69
2022/09/02 03:12:33;;;;;;;10.30;9.50;;;;;;;25.01;52.10;94758.69;6169158;28;103268;-68
2022/09/02 03:15:37;;;;;;;15.87;14.67;;;;;;;24.99;52.22;94758.25;6180203;28;103046;-68
2022/09/02 03:18:41;;;;;;;10.20;9.37;;;;;;;24.98;52.26;94750.56;6165674;28;104573;-68
2022/09/02 03:21:44;;;;;;;9.60;8.83;;;;;;;24.98;52.07;94743.31;6172350;28;103497;-70
2022/09/02 03:24:48;;;;;;;10.30;9.60;;;;;;;25.00;52.42;94741.06;6171399;28;105034;-69
2022/09/02 03:27:52;;;;;;;9.93;9.27;;;;;;;24.99;52.27;94747.53;6178479;28;103564;-68
2022/09/02 03:30:55;;;;;;;9.10;8.40;;;;;;;25.02;52.54;94754.13;6175713;28;102968;-68
2022/09/02 03:33:59;;;;;;;11.77;10.77;;;;;;;25.02;52.31;94754.91;6157837;28;104478;-68
2022/09/02 03:37:02;;;;;;;11.00;10.13;;;;;;;25.00;52.00;94759.03;6167290;28;103087;-70
2022/09/02 03:40:10;;;;;;;9.70;8.90;;;;;;;24.96;52.43;94753.56;6182752;28;103287;-68
2022/09/02 03:43:14;;;;;;;9.33;8.53;;;;;;;24.97;52.05;94757.81;6173155;28;103138;-69
2022/09/02 03:46:17;;;;;;;8.63;7.87;;;;;;;24.96;52.74;94764.28;6170682;28;103227;-65
2022/09/02 03:49:20;;;;;;;7.73;7.10;;;;;;;24.89;52.31;94766.72;6185304;28;103371;-67
2022/09/02 03:52:24;;;;;;;8.07;7.30;;;;;;;24.94;52.40;94773.75;6164096;28;103936;-64
2022/09/02 03:55:29;;;;;;;9.93;9.13;;;;;;;24.94;52.86;94779.88;6170409;28;107120;-65
2022/09/02 03:58:33;;;;;;;8.40;7.70;;;;;;;24.96;52.14;94790.25;6161932;28;102984;-66
2022/09/02 04:01:36;;;;;;;8.93;8.13;;;;;;;25.00;52.32;94791.94;6162807;28;103277;-65
2022/09/02 04:04:40;;;;;;;8.73;7.80;;;;;;;24.96;52.46;94788.38;6164255;28;103503;-66
2022/09/02 04:07:44;;;;;;;8.90;7.83;;;;;;;24.84;52.75;94793.66;6166869;28;103122;-66
2022/09/02 04:10:50;;;;;;;8.80;8.00;;;;;;;24.69;53.00;94802.31;6159134;28;103946;-68
2022/09/02 04:13:54;;;;;;;9.40;8.50;;;;;;;24.56;53.11;94798.78;6160484;28;103799;-68
2022/09/02 04:16:57;;;;;;;9.30;8.50;;;;;;;24.69;53.50;94800.41;6162884;28;103418;-67
2022/09/02 04:20:00;;;;;;;8.50;7.90;;;;;;;24.85;53.04;94797.13;6166915;28;103987;-64
2022/09/02 04:23:03;;;;;;;9.73;7.43;;;;;;;24.75;52.96;94801.00;6182070;28;103651;-73
2022/09/02 04:26:11;;;;;;;8.50;7.80;;;;;;;24.73;52.85;94812.03;6186994;28;104207;-70
2022/09/02 04:29:14;;;;;;;7.87;7.30;;;;;;;24.81;52.38;94817.63;6186050;28;103280;-67
2022/09/02 04:32:18;;;;;;;9.80;7.73;;;;;;;24.84;52.34;94819.66;6177020;28;103217;-67
2022/09/02 04:35:22;;;;;;;8.30;7.70;;;;;;;24.83;52.79;94820.75;6187167;28;103567;-67
2022/09/02 04:38:25;;;;;;;9.20;8.50;;;;;;;24.78;52.47;94822.53;6185128;28;104410;-67
2022/09/02 04:41:30;;;;;;;8.57;7.67;;;;;;;24.68;53.06;94825.59;6180082;28;104912;-68
2022/09/02 04:44:34;;;;;;;8.57;7.97;;;;;;;24.65;52.85;94822.78;6178683;28;103497;-67
2022/09/02 04:47:37;;;;;;;8.97;8.27;;;;;;;24.63;52.75;94827.66;6183644;28;103046;-67
2022/09/02 04:50:41;;;;;;;8.70;8.00;;;;;;;24.69;52.39;94829.84;6184658;28;103711;-67
2022/09/02 04:53:45;;;;;;;9.90;9.10;;;;;;;24.72;52.61;94828.44;6173787;28;103085;-67
2022/09/02 04:56:50;;;;;;;10.20;8.63;;;;;;;24.77;52.23;94829.00;6186328;28;103214;-68
2022/09/02 04:59:53;;;;;;;8.63;7.93;;;;;;;24.79;52.53;94834.03;6184920;28;103042;-68
2022/09/02 05:02:56;;;;;;;9.10;8.10;;;;;;;24.76;52.32;94823.97;6185614;28;103307;-68
2022/09/02 05:06:00;;;;;;;8.10;7.50;;;;;;;24.76;52.37;94829.34;6175446;28;103287;-69
2022/09/02 05:09:04;;;;;;;9.13;8.43;;;;;;;24.74;52.40;94828.88;6185196;28;103131;-68
2022/09/02 05:12:09;;;;;;;9.27;8.30;;;;;;;24.76;52.12;94826.66;6186544;28;104761;-68
2022/09/02 05:15:13;;;;;;;9.43;8.70;;;;;;;24.80;52.35;94832.91;6186040;28;104206;-69
2022/09/02 05:18:16;;;;;;;8.80;8.13;;;;;;;24.84;52.20;94825.78;6174780;28;103889;-68
2022/09/02 05:21:20;;;;;;;8.83;7.97;;;;;;;24.85;52.32;94835.38;6186551;28;103008;-68
2022/09/02 05:24:23;;;;;;;9.07;8.37;;;;;;;24.87;52.30;94838.53;6185860;28;103179;-69
2022/09/02 05:27:30;;;;;;;8.30;7.60;;;;;;;24.85;52.46;94838.06;6174405;28;104020;-68
2022/09/02 05:30:33;;;;;;;8.50;7.80;;;;;;;24.88;52.40;94834.75;6184443;28;103356;-68
2022/09/02 05:33:39;;;;;;;8.33;7.73;;;;;;;24.88;51.92;94832.06;6186059;28;103255;-68
2022/09/02 05:36:42;;;;;;;7.83;7.20;;;;;;;24.88;52.20;94834.75;6185609;28;103134;-68
2022/09/02 05:39:46;;;;;;;7.57;7.07;;;;;;;24.88;51.94;94837.44;6174151;28;103847;-68
2022/09/02 05:42:50;;;;;;;8.33;7.73;;;;;;;24.89;52.38;94838.22;6185321;28;103158;-68
2022/09/02 05:45:53;;;;;;;8.57;7.20;;;;;;;24.88;52.13;94837.44;6185274;28;103269;-68
2022/09/02 05:49:06;;;;;;;7.63;7.10;;;;;;;24.88;52.52;94840.09;6185962;28;105889;-69
2022/09/02 05:52:10;;;;;;;7.67;7.07;;;;;;;24.89;52.54;94833.63;6176210;28;103355;-69
2022/09/02 05:55:13;;;;;;;7.63;7.13;;;;;;;24.90;52.21;94840.56;6184856;28;103089;-68
2022/09/02 05:58:18;;;;;;;8.50;7.90;;;;;;;24.89;52.13;94830.97;6185679;28;103628;-69
2022/09/02 06:01:21;;;;;;;8.80;8.07;;;;;;;24.90;52.50;94831.75;6178076;28;103187;-69
2022/09/02 06:04:25;;;;;;;7.63;7.13;;;;;;;24.92;52.32;94835.66;6181688;28;104095;-75
2022/09/02 06:07:28;;;;;;;8.47;7.77;;;;;;;24.90;52.48;94831.75;6188289;28;103085;-69
2022/09/02 06:10:32;;;;;;;8.63;7.90;;;;;;;24.90;52.67;94837.88;6188909;28;103014;-69
2022/09/02 06:13:39;;;;;;;8.37;7.73;;;;;;;24.90;52.64;94832.53;6179686;28;105921;-69
2022/09/02 06:16:44;;;;;;;8.10;7.43;;;;;;;24.91;52.45;94839.44;6188654;28;103137;-69
2022/09/02 06:19:47;;;;;;;8.07;7.40;;;;;;;24.92;52.53;94829.50;6189403;28;103703;-70
2022/09/02 06:22:55;;;;;;;8.17;7.57;;;;;;;24.91;52.84;94835.97;6189846;28;103673;-69
2022/09/02 06:26:13;;;;;;;8.90;8.20;;;;;;;24.90;52.39;94843.22;6179343;28;104791;-68
2022/09/02 06:29:18;;;;;;;7.93;7.30;;;;;;;24.92;52.52;94840.22;6188735;28;103171;-69
2022/09/02 06:32:21;;;;;;;7.83;7.03;;;;;;;24.92;52.53;94840.22;6187967;28;103062;-68
2022/09/02 06:35:24;;;;;;;8.20;7.60;;;;;;;24.93;52.42;94839.91;6183532;28;103343;-69
2022/09/02 06:38:27;;;;;;;8.93;8.27;;;;;;;24.92;52.29;94840.22;6183963;28;103819;-68
2022/09/02 06:41:33;;;;;;;8.57;7.77;;;;;;;24.92;52.06;94840.22;6188931;28;103659;-69
2022/09/02 06:44:37;;;;;;;7.70;7.17;;;;;;;24.92;52.29;94851.72;6189056;28;104022;-68
2022/09/02 06:47:41;;;;;;;8.70;8.10;;;;;;;24.93;52.49;94853.28;6178628;28;103068;-67
2022/09/02 06:50:46;;;;;;;8.83;8.03;;;;;;;24.91;52.59;94850.16;6189507;28;105030;-68
2022/09/02 06:53:50;;;;;;;8.30;7.70;;;;;;;24.92;52.27;94857.06;6188976;28;103246;-68
2022/09/02 06:56:54;;;;;;;8.30;7.57;;;;;;;24.91;52.28;94858.19;6188847;28;103044;-68
2022/09/02 06:59:58;;;;;;;9.50;7.80;;;;;;;24.91;52.15;94852.03;6177724;28;103157;-68
2022/09/02 07:06:26;;;;;;;8.53;7.83;;;;;;;24.90;52.05;94858.50;6188488;28;103428;-66
2022/09/02 07:09:30;;;;;;;8.10;7.40;;;;;;;24.89;52.40;94864.97;6183110;28;103081;-65
2022/09/02 07:12:34;;;;;;;8.03;7.43;;;;;;;24.88;52.61;94866.09;6184472;28;104272;-65
2022/09/02 07:15:41;;;;;;;8.70;8.00;;;;;;;24.89;52.53;94868.44;6188458;28;103325;-65
2022/09/02 07:18:44;;;;;;;8.60;7.90;;;;;;;24.87;52.48;94865.31;6188252;28;103041;-65
2022/09/02 07:21:49;;;;;;;7.93;7.23;;;;;;;24.87;52.84;94859.16;6177497;28;103390;-69
2022/09/02 07:24:52;;;;;;;8.47;7.77;;;;;;;24.86;53.00;94869.06;6188482;28;103550;-65
2022/09/02 07:27:55;;;;;;;7.37;6.87;;;;;;;24.87;52.74;94867.97;6188275;28;103530;-66
2022/09/02 07:30:59;;;;;;;8.27;7.50;;;;;;;24.91;52.64;94873.47;6187609;28;103303;-65
2022/09/02 07:34:05;;;;;;;8.17;7.50;;;;;;;24.91;52.80;94879.59;6177356;28;104024;-66
2022/09/02 07:37:08;;;;;;;8.57;7.87;;;;;;;24.90;53.05;94878.03;6188026;28;103224;-65
2022/09/02 07:40:14;;;;;;;7.70;7.00;;;;;;;24.88;53.01;94877.56;6187779;28;103255;-65
2022/09/02 07:43:17;;;;;;;8.83;8.23;;;;;;;24.90;53.20;94874.56;6182633;28;103025;-66
2022/09/02 07:46:22;;;;;;;7.17;6.67;;;;;;;24.90;53.59;94875.34;6181858;28;103330;-66
2022/09/02 07:49:26;;;;;;;7.57;6.97;;;;;;;24.91;53.10;94870.78;6188041;28;103888;-66
2022/09/02 07:52:30;;;;;;;11.53;10.50;;;;;;;24.91;53.02;94874.25;6187013;28;103052;-65
2022/09/02 07:55:35;;;;;;;19.17;17.53;;;;;;;24.90;53.10;94867.31;6177654;28;103373;-65
2022/09/02 07:58:38;;;;;;;15.97;14.80;;;;;;;24.91;52.70;94876.91;6187156;28;103293;-66
2022/09/02 08:01:43;;;;;;;13.10;12.00;;;;;;;24.91;52.89;94884.94;6187640;28;103251;-66
2022/09/02 08:04:46;;;;;;;11.40;10.50;;;;;;;24.89;53.32;94881.81;6186532;28;103175;-66
2022/09/02 08:07:49;;;;;;;11.10;10.30;;;;;;;24.90;53.35;94885.28;6176983;28;104609;-65
2022/09/02 08:10:53;;;;;;;10.43;9.43;;;;;;;24.90;53.10;94886.06;6187597;28;103396;-66
2022/09/02 08:13:56;;;;;;;9.50;8.80;;;;;;;24.91;53.22;94892.97;6186879;28;103021;-66
2022/09/02 08:17:02;;;;;;;9.60;8.83;;;;;;;24.87;53.29;94886.72;6185276;28;103099;-65
2022/09/02 08:20:06;;;;;;;15.77;14.47;;;;;;;24.90;53.15;94886.06;6181392;28;102791;-65
2022/09/02 08:23:14;;;;;;;21.00;19.27;;;;;;;24.89;53.06;94889.84;6186961;28;103232;-65
2022/09/02 08:26:37;;;;;;;20.67;19.07;;;;;;;24.90;53.08;94899.44;6187006;28;102807;-65
2022/09/02 08:29:41;;;;;;;16.33;15.03;;;;;;;24.91;52.63;94892.97;6176207;28;103521;-66
2022/09/02 08:32:46;;;;;;;13.20;12.20;;;;;;;24.91;53.16;94897.56;6186713;28;103133;-65
2022/09/02 08:35:49;;;;;;;11.63;10.43;;;;;;;24.90;52.78;94888.75;6185624;28;103151;-65
2022/09/02 08:38:52;;;;;;;12.50;11.37;;;;;;;24.92;52.70;94886.50;6186678;28;103828;-64
2022/09/02 08:42:07;;;;;;;11.47;10.57;;;;;;;24.92;52.77;94883.84;6177500;28;103928;-65
2022/09/02 08:45:14;;;;;;;11.23;10.33;;;;;;;24.91;52.83;94879.59;6186305;28;103562;-65
2022/09/02 08:48:23;;;;;;;10.93;10.13;;;;;;;24.92;53.05;94883.84;6186917;28;103359;-65
2022/09/02 08:51:31;;;;;;;11.17;10.27;;;;;;;24.93;52.78;94880.06;6181751;28;103203;-64
2022/09/02 08:54:45;;;;;;;12.40;11.30;;;;;;;24.94;52.70;94880.84;6181238;28;103153;-66
2022/09/02 08:57:49;;;;;;;11.27;10.30;;;;;;;24.94;52.88;94878.16;6186697;28;104661;-65
2022/09/02 09:01:02;;;;;;;11.43;10.43;;;;;;;24.92;53.27;94881.16;6186511;28;103279;-64
2022/09/02 09:04:18;;;;;;;11.20;10.30;;;;;;;24.92;53.33;94880.38;6175038;28;103670;-65
2022/09/02 09:07:30;;;;;;;11.00;10.20;;;;;;;24.94;52.66;94875.47;6185017;28;103048;-65
2022/09/02 09:10:41;;;;;;;12.63;11.53;;;;;;;24.94;52.86;94878.94;6186133;28;103014;-64
2022/09/02 09:14:15;;;;;;;15.17;14.00;;;;;;;24.92;52.95;94873.13;6185626;28;103166;-67
2022/09/02 09:17:28;;;;;;;14.70;13.50;;;;;;;24.94;52.74;94859.41;6180364;28;103293;-65
2022/09/02 09:20:37;;;;;;;13.57;12.03;;;;;;;24.94;52.84;94856.75;6185249;28;103033;-64
2022/09/02 09:23:41;;;;;;;12.50;11.60;;;;;;;24.94;52.88;94862.09;6186110;28;103440;-65
2022/09/02 09:26:46;;;;;;;12.37;11.33;;;;;;;24.93;52.63;94865.88;6174332;28;103300;-65
2022/09/02 09:29:52;;;;;;;12.80;11.70;;;;;;;24.94;52.83;94862.88;6186255;28;102948;-64
2022/09/02 09:32:58;;;;;;;12.53;11.53;;;;;;;24.94;53.12;94854.06;6186195;28;103421;-65
2022/09/02 09:36:04;;;;;;;12.53;11.33;;;;;;;24.97;53.22;94861.44;6184849;28;102930;-65
2022/09/02 09:39:17;;;;;;;11.70;10.80;;;;;;;24.95;53.13;94851.06;6174176;28;103207;-65
2022/09/02 09:42:32;;;;;;;12.47;11.47;;;;;;;25.05;53.41;94853.34;6185008;28;102988;-67
2022/09/02 09:45:37;;;;;;;13.40;12.10;;;;;;;25.14;53.67;94844.44;6185782;28;102784;-66
2022/09/02 09:48:50;;;;;;;11.77;10.87;;;;;;;25.22;53.20;94848.94;6176735;28;103785;-66
2022/09/02 09:51:55;;;;;;;11.07;10.17;;;;;;;25.24;52.98;94852.84;6185083;28;103507;-63
2022/09/02 09:55:12;;;;;;;12.97;11.67;;;;;;;25.24;52.78;94857.41;6185126;28;103153;-66
2022/09/02 09:58:16;;;;;;;13.37;12.27;;;;;;;25.29;52.81;94854.50;6184982;28;103282;-66
2022/09/02 10:01:22;;;;;;;13.37;12.20;;;;;;;25.28;52.66;94852.94;6175928;28;104724;-66
2022/09/02 10:04:30;;;;;;;14.73;13.53;;;;;;;25.27;52.98;94862.09;6185594;28;103110;-72
2022/09/02 10:07:54;;;;;;;14.63;12.80;;;;;;;25.27;53.15;94857.53;6185462;28;102992;-66
2022/09/02 10:11:00;;;;;;;12.33;11.43;;;;;;;25.26;52.83;94860.53;6180029;28;103463;-65
2022/09/02 10:14:06;;;;;;;13.67;12.27;;;;;;;25.23;52.82;94855.84;6179061;28;103085;-65
2022/09/02 10:17:21;;;;;;;13.23;11.93;;;;;;;25.21;53.02;94858.06;6185288;28;104296;-65
2022/09/02 10:20:40;;;;;;;12.37;11.40;;;;;;;25.19;52.80;94860.28;6184759;28;103593;-73
2022/09/02 10:24:15;;;;;;;13.20;11.90;;;;;;;25.29;52.90;94854.50;6174711;28;102923;-67
2022/09/02 10:27:24;;;;;;;12.33;11.30;;;;;;;25.35;53.07;94855.88;6184578;28;104003;-67
2022/09/02 10:30:32;;;;;;;12.83;11.80;;;;;;;25.33;52.92;94850.06;6185244;28;102930;-65
2022/09/02 10:33:45;;;;;;;11.80;10.90;;;;;;;25.31;52.59;94849.59;6180253;28;103053;-66
2022/09/02 10:37:05;;;;;;;11.67;10.77;;;;;;;25.29;52.67;94841.13;6179439;28;102987;-64
2022/09/02 10:40:14;;;;;;;12.43;11.43;;;;;;;25.29;52.44;94841.13;6184221;28;103207;-64
2022/09/02 10:43:32;;;;;;;13.10;11.90;;;;;;;25.28;52.48;94845.69;6183651;28;102685;-64
2022/09/02 10:46:44;;;;;;;11.20;10.23;;;;;;;25.30;52.64;94856.09;6174969;28;106096;-64
2022/09/02 10:50:05;;;;;;;11.73;10.73;;;;;;;25.32;52.37;94859.22;6184318;28;103076;-73
2022/09/02 10:53:22;;;;;;;12.57;11.40;;;;;;;25.34;52.54;94849.72;6188028;28;103185;-64
2022/09/02 10:56:33;;;;;;;12.17;11.17;;;;;;;25.34;52.39;94849.72;6182756;28;103130;-64
2022/09/02 10:59:43;;;;;;;11.63;10.73;;;;;;;25.34;52.23;94854.28;6183935;28;103043;-65
2022/09/02 11:02:49;;;;;;;11.17;10.27;;;;;;;25.33;52.65;94845.47;6188718;28;103325;-65
2022/09/02 11:05:55;;;;;;;12.00;11.10;;;;;;;25.31;52.29;94842.34;6188347;28;103553;-65
2022/09/02 11:09:02;;;;;;;13.80;12.63;;;;;;;25.29;52.34;94849.16;6178127;28;103042;-65
2022/09/02 11:12:15;;;;;;;14.10;12.90;;;;;;;25.29;51.99;94838.44;6188312;28;103092;-65
2022/09/02 11:15:24;;;;;;;12.10;11.00;;;;;;;25.32;52.18;94837.78;6187496;28;103359;-65
2022/09/02 11:18:35;;;;;;;11.67;10.83;;;;;;;25.34;52.15;94824.84;6188819;28;103297;-65
2022/09/02 11:21:50;;;;;;;12.40;11.40;;;;;;;25.32;52.11;94819.03;6179006;28;103335;-65
2022/09/02 11:25:00;;;;;;;12.70;11.50;;;;;;;25.32;52.25;94824.38;6187944;28;103041;-65
2022/09/02 11:28:23;;;;;;;13.40;12.30;;;;;;;25.30;52.32;94824.72;6187500;28;103136;-65
2022/09/02 11:31:33;;;;;;;13.97;12.87;;;;;;;25.32;52.36;94822.50;6178185;28;102874;-65
2022/09/02 11:34:45;;;;;;;15.20;14.00;;;;;;;25.31;52.33;94822.81;6187638;28;104563;-67
2022/09/02 11:37:52;;;;;;;15.03;13.73;;;;;;;25.30;52.36;94819.38;6188167;28;103276;-66
2022/09/02 11:41:16;;;;;;;14.70;13.40;;;;;;;25.29;52.15;94807.09;6187935;28;103475;-65
2022/09/02 11:45:17;;;;;;;14.83;13.63;;;;;;;25.30;52.33;94799.81;6182120;28;103112;-65
2022/09/02 11:48:39;;;;;;;14.57;13.40;;;;;;;25.32;52.16;94784.97;6185280;28;103180;-66
2022/09/02 11:52:19;;;;;;;14.03;13.03;;;;;;;25.36;51.90;94785.13;6188191;28;102831;-64
2022/09/02 11:55:34;;;;;;;13.37;12.33;;;;;;;25.38;51.91;94782.94;6176926;28;102799;-65
2022/09/02 11:58:38;;;;;;;13.97;12.90;;;;;;;25.40;52.37;94787.94;6187759;28;103354;-65
2022/09/02 12:01:49;;;;;;;13.60;12.50;;;;;;;25.39;51.84;94789.84;6187859;28;103367;-65
2022/09/02 12:05:16;;;;;;;14.27;13.17;;;;;;;25.40;51.77;94794.09;6176476;28;102788;-66
2022/09/02 12:08:58;;;;;;;13.70;12.47;;;;;;;25.41;51.90;94797.53;6186804;28;103036;-65
2022/09/02 12:12:01;;;;;;;14.87;13.37;;;;;;;25.41;52.06;94798.31;6187189;28;103715;-66
2022/09/02 12:15:16;;;;;;;14.07;12.80;;;;;;;25.41;52.10;94800.22;6187514;28;103299;-70
2022/09/02 12:18:30;;;;;;;13.13;12.13;;;;;;;25.39;51.95;94795.19;6178085;28;103622;-65
2022/09/02 12:21:35;;;;;;;13.77;12.63;;;;;;;25.40;52.01;94795.97;6186914;28;103230;-66
2022/09/02 12:24:49;;;;;;;14.60;13.37;;;;;;;25.39;52.02;94792.53;6187704;28;103250;-66
2022/09/02 12:28:13;;;;;;;13.93;12.57;;;;;;;25.38;52.04;94785.59;6176398;28;103515;-65
2022/09/02 12:31:44;;;;;;;15.07;13.93;;;;;;;25.36;52.05;94777.88;6187626;28;103154;-65
2022/09/02 12:34:56;;;;;;;14.47;13.47;;;;;;;25.37;52.25;94773.28;6186424;28;103522;-65
2022/09/02 12:38:22;;;;;;;14.00;12.90;;;;;;;25.36;52.31;94769.06;6186878;28;104021;-66
2022/09/02 12:41:31;;;;;;;14.70;13.57;;;;;;;25.37;51.74;94751.88;6181124;28;103535;-67
2022/09/02 12:44:43;;;;;;;15.97;14.67;;;;;;;25.37;52.05;94749.19;6187206;28;104137;-66
2022/09/02 12:47:58;;;;;;;14.90;13.70;;;;;;;25.37;52.41;94743.81;6186060;28;103420;-65
2022/09/02 12:51:02;;;;;;;16.07;14.90;;;;;;;25.35;52.05;94743.38;6175912;28;103202;-66
2022/09/02 12:54:06;;;;;;;16.27;14.77;;;;;;;25.34;51.97;94745.25;6186042;28;103138;-65
2022/09/02 12:57:10;;;;;;;15.10;14.10;;;;;;;25.33;52.24;94742.91;6185864;28;103214;-66
2022/09/02 13:00:16;;;;;;;15.20;14.10;;;;;;;25.33;51.85;94749.03;6186103;28;103062;-66
2022/09/02 13:03:34;;;;;;;15.33;14.03;;;;;;;25.33;51.90;94749.03;6176049;28;102981;-66
2022/09/02 13:07:09;;;;;;;16.30;15.07;;;;;;;25.32;52.00;94752.06;6185908;28;103027;-66
2022/09/02 13:10:36;;;;;;;14.67;13.57;;;;;;;25.31;52.08;94745.94;6186048;28;103144;-66
2022/09/02 13:14:03;;;;;;;16.17;15.00;;;;;;;25.29;52.02;94744.69;6175620;28;103520;-65
2022/09/02 13:17:22;;;;;;;17.00;15.70;;;;;;;25.28;52.11;94751.94;6185235;28;103251;-66
2022/09/02 13:21:00;;;;;;;16.13;15.03;;;;;;;25.29;51.96;94747.38;6186291;28;103057;-66
2022/09/02 13:24:35;;;;;;;16.47;15.27;;;;;;;25.25;52.19;94741.91;6180483;28;103145;-66
2022/09/02 13:28:16;;;;;;;18.60;17.00;;;;;;;25.25;52.48;94751.84;6184830;28;103216;-66
2022/09/02 13:31:21;;;;;;;19.20;17.67;;;;;;;25.17;53.21;94752.72;6146557;28;103173;-71
2022/09/02 13:34:24;;;;;;;19.27;17.70;;;;;;;25.09;54.21;94757.84;6185687;28;103008;-65
2022/09/02 13:37:29;;;;;;;19.17;17.77;;;;;;;25.07;54.57;94757.38;6175023;28;106246;-68
2022/09/02 13:40:36;;;;;;;20.27;18.47;;;;;;;25.04;54.94;94755.38;6185569;28;104069;-65
2022/09/02 13:43:39;;;;;;;19.43;17.63;;;;;;;25.05;55.10;94754.25;6186175;28;105733;-66
2022/09/02 13:46:50;;;;;;;18.90;17.40;;;;;;;25.07;54.95;94781.50;6180003;28;103383;-66
2022/09/02 13:49:55;;;;;;;19.00;17.40;;;;;;;25.08;54.71;94785.72;6181413;28;104051;-65
2022/09/02 13:53:00;;;;;;;18.70;17.20;;;;;;;25.08;54.74;94790.31;6185468;28;103156;-66
2022/09/02 13:56:29;;;;;;;17.07;15.47;;;;;;;25.08;55.04;94793.75;6185014;28;102792;-65
2022/09/02 13:59:35;;;;;;;16.90;15.40;;;;;;;25.06;55.29;94797.88;6169543;28;104076;-65
2022/09/02 14:02:38;;;;;;;17.00;15.60;;;;;;;25.06;55.38;94806.69;6161518;28;103059;-65
2022/09/02 14:05:45;;;;;;;16.00;14.53;;;;;;;25.08;55.75;94811.72;6161437;28;102876;-65
2022/09/02 14:08:53;;;;;;;15.60;14.10;;;;;;;25.08;55.77;94791.09;6160617;28;102938;-66
2022/09/02 14:12:00;;;;;;;16.00;14.70;;;;;;;25.04;55.89;94771.44;6152087;28;106206;-68
2022/09/02 14:15:05;;;;;;;16.20;14.70;;;;;;;25.06;56.91;94779.16;6160781;28;103431;-67
2022/09/02 14:18:13;;;;;;;17.90;16.27;;;;;;;24.94;56.85;94784.47;6160262;28;102924;-67
2022/09/02 14:21:20;;;;;;;16.37;14.77;;;;;;;25.11;56.08;94803.03;6128656;28;106368;-67
2022/09/02 14:24:26;;;;;;;18.23;16.37;;;;;;;25.25;56.18;94816.91;6138524;28;104282;-67